sensor_id;sensor_type;location;lat;lon;timestamp;P1;durP1;ratioP1;P2;durP2;ratioP2
33403;SDS011;19751;40.274;18.268;2023-08-17T00:01:20;12.73;;;11.45;;
33403;SDS011;19751;40.274;18.268;2023-08-17T00:03:45;12.45;;;11.40;;
33403;SDS011;19751;40.274;18.268;2023-08-17T00:06:11;13.32;;;11.25;;
33403;SDS011;19751;40.274;18.268;2023-08-17T00:08:37;12.00;;;11.00;;
33403;SDS011;19751;40.274;18.268;2023-08-17T00:11:02;12.32;;;11.23;;
33403;SDS011;19751;40.274;18.268;2023-08-17T00:13:28;10.70;;;9.68;;
33403;SDS011;19751;40.274;18.268;2023-08-17T00:15:54;11.63;;;10.60;;
33403;SDS011;19751;40.274;18.268;2023-08-17T00:18:19;13.23;;;11.10;;
33403;SDS011;19751;40.274;18.268;2023-08-17T00:20:45;11.93;;;10.77;;
33403;SDS011;19751;40.274;18.268;2023-08-17T00:23:10;11.85;;;10.77;;
33403;SDS011;19751;40.274;18.268;2023-08-17T00:25:36;11.23;;;10.32;;
33403;SDS011;19751;40.274;18.268;2023-08-17T00:28:01;10.65;;;9.65;;
33403;SDS011;19751;40.274;18.268;2023-08-17T00:30:27;11.98;;;10.88;;
33403;SDS011;19751;40.274;18.268;2023-08-17T00:32:52;10.70;;;9.73;;
33403;SDS011;19751;40.274;18.268;2023-08-17T00:35:18;10.70;;;9.90;;
33403;SDS011;19751;40.274;18.268;2023-08-17T00:37:43;11.00;;;10.10;;
33403;SDS011;19751;40.274;18.268;2023-08-17T00:40:09;10.82;;;9.95;;
33403;SDS011;19751;40.274;18.268;2023-08-17T00:42:35;11.00;;;10.10;;
33403;SDS011;19751;40.274;18.268;2023-08-17T00:45:00;11.43;;;10.35;;
33403;SDS011;19751;40.274;18.268;2023-08-17T00:47:26;12.13;;;11.10;;
33403;SDS011;19751;40.274;18.268;2023-08-17T00:49:53;10.88;;;10.00;;
33403;SDS011;19751;40.274;18.268;2023-08-17T00:52:19;11.88;;;10.80;;
33403;SDS011;19751;40.274;18.268;2023-08-17T00:54:44;11.32;;;10.40;;
33403;SDS011;19751;40.274;18.268;2023-08-17T00:57:10;10.77;;;9.98;;
33403;SDS011;19751;40.274;18.268;2023-08-17T00:59:36;10.98;;;9.98;;
33403;SDS011;19751;40.274;18.268;2023-08-17T01:02:02;11.90;;;10.82;;
33403;SDS011;19751;40.274;18.268;2023-08-17T01:04:28;11.68;;;10.77;;
33403;SDS011;19751;40.274;18.268;2023-08-17T01:06:53;11.05;;;10.15;;
33403;SDS011;19751;40.274;18.268;2023-08-17T01:09:19;10.98;;;10.07;;
33403;SDS011;19751;40.274;18.268;2023-08-17T01:11:48;10.70;;;9.70;;
33403;SDS011;19751;40.274;18.268;2023-08-17T01:14:28;11.18;;;10.27;;
33403;SDS011;19751;40.274;18.268;2023-08-17T01:17:18;10.68;;;9.80;;
33403;SDS011;19751;40.274;18.268;2023-08-17T01:19:51;11.57;;;10.52;;
33403;SDS011;19751;40.274;18.268;2023-08-17T01:22:18;11.57;;;10.57;;
33403;SDS011;19751;40.274;18.268;2023-08-17T01:24:47;11.35;;;10.45;;
33403;SDS011;19751;40.274;18.268;2023-08-17T01:27:13;11.30;;;10.25;;
33403;SDS011;19751;40.274;18.268;2023-08-17T01:29:38;11.93;;;10.70;;
33403;SDS011;19751;40.274;18.268;2023-08-17T01:32:18;13.15;;;12.05;;
33403;SDS011;19751;40.274;18.268;2023-08-17T01:35:05;11.35;;;10.35;;
33403;SDS011;19751;40.274;18.268;2023-08-17T01:37:36;13.00;;;11.90;;
33403;SDS011;19751;40.274;18.268;2023-08-17T01:40:05;13.45;;;12.13;;
33403;SDS011;19751;40.274;18.268;2023-08-17T01:42:32;11.63;;;10.55;;
33403;SDS011;19751;40.274;18.268;2023-08-17T01:44:58;12.82;;;11.55;;
33403;SDS011;19751;40.274;18.268;2023-08-17T01:47:23;12.73;;;11.45;;
33403;SDS011;19751;40.274;18.268;2023-08-17T01:49:49;12.73;;;11.55;;
33403;SDS011;19751;40.274;18.268;2023-08-17T01:52:15;12.50;;;11.30;;
33403;SDS011;19751;40.274;18.268;2023-08-17T01:54:40;12.48;;;11.48;;
33403;SDS011;19751;40.274;18.268;2023-08-17T01:57:06;12.98;;;11.77;;
33403;SDS011;19751;40.274;18.268;2023-08-17T01:59:31;11.82;;;10.82;;
33403;SDS011;19751;40.274;18.268;2023-08-17T02:01:57;12.52;;;11.52;;
33403;SDS011;19751;40.274;18.268;2023-08-17T02:04:22;13.38;;;12.35;;
33403;SDS011;19751;40.274;18.268;2023-08-17T02:06:48;13.20;;;12.10;;
33403;SDS011;19751;40.274;18.268;2023-08-17T02:09:13;13.93;;;12.73;;
33403;SDS011;19751;40.274;18.268;2023-08-17T02:11:39;13.85;;;12.60;;
33403;SDS011;19751;40.274;18.268;2023-08-17T02:14:04;15.32;;;13.95;;
33403;SDS011;19751;40.274;18.268;2023-08-17T02:16:30;13.60;;;12.45;;
33403;SDS011;19751;40.274;18.268;2023-08-17T02:18:55;15.10;;;13.15;;
33403;SDS011;19751;40.274;18.268;2023-08-17T02:21:21;14.45;;;13.20;;
33403;SDS011;19751;40.274;18.268;2023-08-17T02:23:46;15.45;;;13.98;;
33403;SDS011;19751;40.274;18.268;2023-08-17T02:26:12;16.02;;;14.43;;
33403;SDS011;19751;40.274;18.268;2023-08-17T02:28:37;14.20;;;13.10;;
33403;SDS011;19751;40.274;18.268;2023-08-17T02:31:03;14.50;;;13.30;;
33403;SDS011;19751;40.274;18.268;2023-08-17T02:33:28;15.90;;;14.43;;
33403;SDS011;19751;40.274;18.268;2023-08-17T02:35:54;14.10;;;12.85;;
33403;SDS011;19751;40.274;18.268;2023-08-17T02:38:19;15.10;;;13.80;;
33403;SDS011;19751;40.274;18.268;2023-08-17T02:40:45;14.68;;;13.20;;
33403;SDS011;19751;40.274;18.268;2023-08-17T02:43:10;15.52;;;14.15;;
33403;SDS011;19751;40.274;18.268;2023-08-17T02:45:36;14.23;;;12.85;;
33403;SDS011;19751;40.274;18.268;2023-08-17T02:48:01;15.75;;;14.40;;
33403;SDS011;19751;40.274;18.268;2023-08-17T02:50:27;15.07;;;13.88;;
33403;SDS011;19751;40.274;18.268;2023-08-17T02:52:53;14.57;;;13.35;;
33403;SDS011;19751;40.274;18.268;2023-08-17T02:55:18;15.32;;;14.13;;
33403;SDS011;19751;40.274;18.268;2023-08-17T02:57:44;16.77;;;15.38;;
33403;SDS011;19751;40.274;18.268;2023-08-17T03:00:09;16.13;;;14.80;;
33403;SDS011;19751;40.274;18.268;2023-08-17T03:02:35;16.85;;;15.10;;
33403;SDS011;19751;40.274;18.268;2023-08-17T03:05:01;17.02;;;15.52;;
33403;SDS011;19751;40.274;18.268;2023-08-17T03:07:28;17.30;;;15.60;;
33403;SDS011;19751;40.274;18.268;2023-08-17T03:09:53;16.45;;;14.95;;
33403;SDS011;19751;40.274;18.268;2023-08-17T03:12:19;17.77;;;15.73;;
33403;SDS011;19751;40.274;18.268;2023-08-17T03:14:44;19.70;;;15.73;;
33403;SDS011;19751;40.274;18.268;2023-08-17T03:17:10;15.63;;;14.05;;
33403;SDS011;19751;40.274;18.268;2023-08-17T03:19:35;17.33;;;15.82;;
33403;SDS011;19751;40.274;18.268;2023-08-17T03:22:01;17.60;;;15.77;;
33403;SDS011;19751;40.274;18.268;2023-08-17T03:24:26;17.05;;;15.43;;
33403;SDS011;19751;40.274;18.268;2023-08-17T03:26:52;16.27;;;14.88;;
33403;SDS011;19751;40.274;18.268;2023-08-17T03:29:17;14.80;;;13.50;;
33403;SDS011;19751;40.274;18.268;2023-08-17T03:31:43;15.70;;;14.27;;
33403;SDS011;19751;40.274;18.268;2023-08-17T03:34:08;15.55;;;14.15;;
33403;SDS011;19751;40.274;18.268;2023-08-17T03:36:34;16.40;;;14.85;;
33403;SDS011;19751;40.274;18.268;2023-08-17T03:38:59;15.60;;;14.38;;
33403;SDS011;19751;40.274;18.268;2023-08-17T03:41:25;15.70;;;14.23;;
33403;SDS011;19751;40.274;18.268;2023-08-17T03:43:50;15.85;;;14.23;;
33403;SDS011;19751;40.274;18.268;2023-08-17T03:46:16;14.52;;;13.23;;
33403;SDS011;19751;40.274;18.268;2023-08-17T03:48:41;15.23;;;13.75;;
33403;SDS011;19751;40.274;18.268;2023-08-17T03:51:07;14.77;;;13.57;;
33403;SDS011;19751;40.274;18.268;2023-08-17T03:53:32;16.17;;;14.52;;
33403;SDS011;19751;40.274;18.268;2023-08-17T03:55:58;15.82;;;13.77;;
33403;SDS011;19751;40.274;18.268;2023-08-17T03:58:23;15.02;;;13.60;;
33403;SDS011;19751;40.274;18.268;2023-08-17T04:00:52;16.23;;;14.63;;
33403;SDS011;19751;40.274;18.268;2023-08-17T04:03:21;14.98;;;13.57;;
33403;SDS011;19751;40.274;18.268;2023-08-17T04:05:46;15.38;;;13.75;;
33403;SDS011;19751;40.274;18.268;2023-08-17T04:08:12;15.43;;;11.93;;
33403;SDS011;19751;40.274;18.268;2023-08-17T04:10:38;14.35;;;12.95;;
33403;SDS011;19751;40.274;18.268;2023-08-17T04:13:04;13.88;;;12.68;;
33403;SDS011;19751;40.274;18.268;2023-08-17T04:15:30;14.85;;;12.85;;
33403;SDS011;19751;40.274;18.268;2023-08-17T04:17:55;13.95;;;12.55;;
33403;SDS011;19751;40.274;18.268;2023-08-17T04:20:21;12.80;;;11.70;;
33403;SDS011;19751;40.274;18.268;2023-08-17T04:22:47;13.10;;;11.90;;
33403;SDS011;19751;40.274;18.268;2023-08-17T04:25:13;13.18;;;11.90;;
33403;SDS011;19751;40.274;18.268;2023-08-17T04:27:39;13.65;;;11.93;;
33403;SDS011;19751;40.274;18.268;2023-08-17T04:30:05;13.75;;;12.50;;
33403;SDS011;19751;40.274;18.268;2023-08-17T04:32:31;14.02;;;12.75;;
33403;SDS011;19751;40.274;18.268;2023-08-17T04:34:56;13.32;;;11.93;;
33403;SDS011;19751;40.274;18.268;2023-08-17T04:37:22;12.73;;;11.52;;
33403;SDS011;19751;40.274;18.268;2023-08-17T04:39:47;13.07;;;11.93;;
33403;SDS011;19751;40.274;18.268;2023-08-17T04:42:14;12.98;;;11.82;;
33403;SDS011;19751;40.274;18.268;2023-08-17T04:44:39;13.88;;;12.23;;
33403;SDS011;19751;40.274;18.268;2023-08-17T04:47:05;13.43;;;12.13;;
33403;SDS011;19751;40.274;18.268;2023-08-17T04:49:30;12.57;;;11.40;;
33403;SDS011;19751;40.274;18.268;2023-08-17T04:51:56;12.70;;;11.60;;
33403;SDS011;19751;40.274;18.268;2023-08-17T04:54:22;12.57;;;11.57;;
33403;SDS011;19751;40.274;18.268;2023-08-17T04:56:47;12.35;;;11.27;;
33403;SDS011;19751;40.274;18.268;2023-08-17T04:59:13;12.88;;;11.80;;
33403;SDS011;19751;40.274;18.268;2023-08-17T05:01:38;12.75;;;11.63;;
33403;SDS011;19751;40.274;18.268;2023-08-17T05:04:04;14.27;;;12.98;;
33403;SDS011;19751;40.274;18.268;2023-08-17T05:06:30;12.25;;;11.25;;
33403;SDS011;19751;40.274;18.268;2023-08-17T05:08:56;12.43;;;11.32;;
33403;SDS011;19751;40.274;18.268;2023-08-17T05:11:22;12.60;;;11.30;;
33403;SDS011;19751;40.274;18.268;2023-08-17T05:13:48;13.02;;;11.88;;
33403;SDS011;19751;40.274;18.268;2023-08-17T05:16:14;13.15;;;11.95;;
33403;SDS011;19751;40.274;18.268;2023-08-17T05:18:39;13.48;;;12.18;;
33403;SDS011;19751;40.274;18.268;2023-08-17T05:21:05;13.80;;;12.60;;
33403;SDS011;19751;40.274;18.268;2023-08-17T05:23:31;12.60;;;11.45;;
33403;SDS011;19751;40.274;18.268;2023-08-17T05:25:56;19.83;;;13.57;;
33403;SDS011;19751;40.274;18.268;2023-08-17T05:28:22;13.65;;;12.45;;
33403;SDS011;19751;40.274;18.268;2023-08-17T05:30:48;13.60;;;12.23;;
33403;SDS011;19751;40.274;18.268;2023-08-17T05:33:14;13.77;;;12.52;;
33403;SDS011;19751;40.274;18.268;2023-08-17T05:35:39;12.85;;;11.60;;
33403;SDS011;19751;40.274;18.268;2023-08-17T05:38:05;13.52;;;12.27;;
33403;SDS011;19751;40.274;18.268;2023-08-17T05:40:31;13.43;;;12.13;;
33403;SDS011;19751;40.274;18.268;2023-08-17T05:42:57;13.32;;;11.98;;
33403;SDS011;19751;40.274;18.268;2023-08-17T05:45:22;14.18;;;12.77;;
33403;SDS011;19751;40.274;18.268;2023-08-17T05:47:48;14.05;;;12.65;;
33403;SDS011;19751;40.274;18.268;2023-08-17T05:50:13;14.23;;;12.63;;
33403;SDS011;19751;40.274;18.268;2023-08-17T05:52:40;13.52;;;11.98;;
33403;SDS011;19751;40.274;18.268;2023-08-17T05:55:06;12.70;;;11.60;;
33403;SDS011;19751;40.274;18.268;2023-08-17T05:57:32;13.05;;;11.75;;
33403;SDS011;19751;40.274;18.268;2023-08-17T05:59:57;15.02;;;13.70;;
33403;SDS011;19751;40.274;18.268;2023-08-17T06:02:23;13.13;;;11.85;;
33403;SDS011;19751;40.274;18.268;2023-08-17T06:04:48;13.48;;;11.48;;
33403;SDS011;19751;40.274;18.268;2023-08-17T06:07:14;15.07;;;12.57;;
33403;SDS011;19751;40.274;18.268;2023-08-17T06:09:39;13.10;;;11.77;;
33403;SDS011;19751;40.274;18.268;2023-08-17T06:12:05;13.25;;;11.85;;
33403;SDS011;19751;40.274;18.268;2023-08-17T06:14:31;13.63;;;12.43;;
33403;SDS011;19751;40.274;18.268;2023-08-17T06:16:59;14.90;;;11.88;;
33403;SDS011;19751;40.274;18.268;2023-08-17T06:19:24;20.65;;;12.77;;
33403;SDS011;19751;40.274;18.268;2023-08-17T06:21:50;14.25;;;11.43;;
33403;SDS011;19751;40.274;18.268;2023-08-17T06:24:15;12.60;;;11.50;;
33403;SDS011;19751;40.274;18.268;2023-08-17T06:26:41;13.30;;;11.90;;
33403;SDS011;19751;40.274;18.268;2023-08-17T06:29:06;13.18;;;11.80;;
33403;SDS011;19751;40.274;18.268;2023-08-17T06:31:32;18.38;;;13.13;;
33403;SDS011;19751;40.274;18.268;2023-08-17T06:33:58;14.07;;;10.88;;
33403;SDS011;19751;40.274;18.268;2023-08-17T06:36:23;13.82;;;12.32;;
33403;SDS011;19751;40.274;18.268;2023-08-17T06:38:49;14.93;;;12.50;;
33403;SDS011;19751;40.274;18.268;2023-08-17T06:41:15;13.07;;;10.90;;
33403;SDS011;19751;40.274;18.268;2023-08-17T06:43:41;12.30;;;11.30;;
33403;SDS011;19751;40.274;18.268;2023-08-17T06:46:06;11.95;;;10.95;;
33403;SDS011;19751;40.274;18.268;2023-08-17T06:48:32;11.60;;;10.50;;
33403;SDS011;19751;40.274;18.268;2023-08-17T06:50:57;11.63;;;10.52;;
33403;SDS011;19751;40.274;18.268;2023-08-17T06:53:23;12.68;;;9.40;;
33403;SDS011;19751;40.274;18.268;2023-08-17T06:55:48;11.05;;;10.05;;
33403;SDS011;19751;40.274;18.268;2023-08-17T06:58:14;12.38;;;10.25;;
33403;SDS011;19751;40.274;18.268;2023-08-17T07:00:39;11.70;;;10.52;;
33403;SDS011;19751;40.274;18.268;2023-08-17T07:03:05;10.30;;;9.48;;
33403;SDS011;19751;40.274;18.268;2023-08-17T07:05:32;10.85;;;9.75;;
33403;SDS011;19751;40.274;18.268;2023-08-17T07:07:58;10.93;;;9.88;;
33403;SDS011;19751;40.274;18.268;2023-08-17T07:10:24;11.90;;;10.70;;
33403;SDS011;19751;40.274;18.268;2023-08-17T07:12:50;17.23;;;10.05;;
33403;SDS011;19751;40.274;18.268;2023-08-17T07:15:16;11.65;;;10.45;;
33403;SDS011;19751;40.274;18.268;2023-08-17T07:17:41;9.15;;;8.25;;
33403;SDS011;19751;40.274;18.268;2023-08-17T07:20:07;11.23;;;10.13;;
33403;SDS011;19751;40.274;18.268;2023-08-17T07:22:33;13.07;;;10.75;;
33403;SDS011;19751;40.274;18.268;2023-08-17T07:24:58;11.35;;;10.30;;
33403;SDS011;19751;40.274;18.268;2023-08-17T07:27:24;11.20;;;10.00;;
33403;SDS011;19751;40.274;18.268;2023-08-17T07:29:50;13.70;;;10.10;;
33403;SDS011;19751;40.274;18.268;2023-08-17T07:32:15;10.55;;;9.65;;
33403;SDS011;19751;40.274;18.268;2023-08-17T07:34:41;9.95;;;9.02;;
33403;SDS011;19751;40.274;18.268;2023-08-17T07:37:06;9.95;;;8.68;;
33403;SDS011;19751;40.274;18.268;2023-08-17T07:39:32;9.93;;;9.02;;
33403;SDS011;19751;40.274;18.268;2023-08-17T07:41:58;10.70;;;9.70;;
33403;SDS011;19751;40.274;18.268;2023-08-17T07:44:23;10.05;;;9.13;;
33403;SDS011;19751;40.274;18.268;2023-08-17T07:46:49;11.25;;;9.75;;
33403;SDS011;19751;40.274;18.268;2023-08-17T07:49:15;12.90;;;9.43;;
33403;SDS011;19751;40.274;18.268;2023-08-17T07:51:40;9.65;;;8.80;;
33403;SDS011;19751;40.274;18.268;2023-08-17T07:54:06;13.23;;;8.98;;
33403;SDS011;19751;40.274;18.268;2023-08-17T07:56:32;10.65;;;9.52;;
33403;SDS011;19751;40.274;18.268;2023-08-17T07:58:57;10.98;;;9.40;;
33403;SDS011;19751;40.274;18.268;2023-08-17T08:01:23;9.43;;;8.63;;
33403;SDS011;19751;40.274;18.268;2023-08-17T08:03:49;12.20;;;9.30;;
33403;SDS011;19751;40.274;18.268;2023-08-17T08:06:15;9.88;;;8.82;;
33403;SDS011;19751;40.274;18.268;2023-08-17T08:08:40;10.27;;;8.48;;
33403;SDS011;19751;40.274;18.268;2023-08-17T08:11:06;10.02;;;8.93;;
33403;SDS011;19751;40.274;18.268;2023-08-17T08:13:31;9.52;;;8.65;;
33403;SDS011;19751;40.274;18.268;2023-08-17T08:16:00;8.82;;;8.02;;
33403;SDS011;19751;40.274;18.268;2023-08-17T08:18:25;10.00;;;9.10;;
33403;SDS011;19751;40.274;18.268;2023-08-17T08:20:51;10.55;;;9.18;;
33403;SDS011;19751;40.274;18.268;2023-08-17T08:23:16;9.00;;;8.13;;
33403;SDS011;19751;40.274;18.268;2023-08-17T08:25:42;9.15;;;8.30;;
33403;SDS011;19751;40.274;18.268;2023-08-17T08:28:07;11.02;;;8.18;;
33403;SDS011;19751;40.274;18.268;2023-08-17T08:30:33;10.68;;;8.98;;
33403;SDS011;19751;40.274;18.268;2023-08-17T08:32:59;12.40;;;9.55;;
33403;SDS011;19751;40.274;18.268;2023-08-17T08:35:25;10.05;;;9.02;;
33403;SDS011;19751;40.274;18.268;2023-08-17T08:37:51;9.15;;;8.23;;
33403;SDS011;19751;40.274;18.268;2023-08-17T08:40:17;9.77;;;8.57;;
33403;SDS011;19751;40.274;18.268;2023-08-17T08:42:43;9.50;;;8.43;;
33403;SDS011;19751;40.274;18.268;2023-08-17T08:45:09;9.23;;;8.43;;
33403;SDS011;19751;40.274;18.268;2023-08-17T08:47:35;9.35;;;8.45;;
33403;SDS011;19751;40.274;18.268;2023-08-17T08:50:02;9.88;;;8.68;;
33403;SDS011;19751;40.274;18.268;2023-08-17T08:52:36;9.77;;;8.10;;
33403;SDS011;19751;40.274;18.268;2023-08-17T08:55:11;10.40;;;8.57;;
33403;SDS011;19751;40.274;18.268;2023-08-17T08:57:40;9.55;;;8.55;;
33403;SDS011;19751;40.274;18.268;2023-08-17T09:00:06;10.15;;;8.38;;
33403;SDS011;19751;40.274;18.268;2023-08-17T09:02:33;10.98;;;7.97;;
33403;SDS011;19751;40.274;18.268;2023-08-17T09:04:59;10.50;;;8.20;;
33403;SDS011;19751;40.274;18.268;2023-08-17T09:07:27;8.70;;;7.63;;
33403;SDS011;19751;40.274;18.268;2023-08-17T09:09:54;10.13;;;8.57;;
33403;SDS011;19751;40.274;18.268;2023-08-17T09:12:21;8.27;;;7.47;;
33403;SDS011;19751;40.274;18.268;2023-08-17T09:14:48;11.10;;;9.70;;
33403;SDS011;19751;40.274;18.268;2023-08-17T09:17:17;13.40;;;11.23;;
33403;SDS011;19751;40.274;18.268;2023-08-17T09:19:48;17.95;;;13.93;;
33403;SDS011;19751;40.274;18.268;2023-08-17T09:22:16;12.85;;;10.07;;
33403;SDS011;19751;40.274;18.268;2023-08-17T09:27:13;10.52;;;9.07;;
33403;SDS011;19751;40.274;18.268;2023-08-17T09:29:40;11.15;;;8.27;;
33403;SDS011;19751;40.274;18.268;2023-08-17T09:32:10;11.45;;;8.85;;
33403;SDS011;19751;40.274;18.268;2023-08-17T09:34:36;10.48;;;9.15;;
33403;SDS011;19751;40.274;18.268;2023-08-17T09:37:05;8.80;;;7.97;;
33403;SDS011;19751;40.274;18.268;2023-08-17T09:39:31;11.90;;;8.65;;
33403;SDS011;19751;40.274;18.268;2023-08-17T09:41:56;8.98;;;8.07;;
33403;SDS011;19751;40.274;18.268;2023-08-17T09:44:22;8.32;;;7.47;;
33403;SDS011;19751;40.274;18.268;2023-08-17T09:46:48;15.23;;;8.38;;
33403;SDS011;19751;40.274;18.268;2023-08-17T09:49:13;10.93;;;8.50;;
33403;SDS011;19751;40.274;18.268;2023-08-17T09:51:42;10.00;;;8.70;;
33403;SDS011;19751;40.274;18.268;2023-08-17T09:54:22;13.10;;;8.13;;
33403;SDS011;19751;40.274;18.268;2023-08-17T09:56:49;9.60;;;7.68;;
33403;SDS011;19751;40.274;18.268;2023-08-17T09:59:16;9.35;;;8.45;;
33403;SDS011;19751;40.274;18.268;2023-08-17T10:01:42;10.95;;;8.40;;
33403;SDS011;19751;40.274;18.268;2023-08-17T10:04:08;8.60;;;7.70;;
33403;SDS011;19751;40.274;18.268;2023-08-17T10:06:36;9.10;;;7.45;;
33403;SDS011;19751;40.274;18.268;2023-08-17T10:09:06;10.52;;;7.93;;
33403;SDS011;19751;40.274;18.268;2023-08-17T10:11:35;13.52;;;10.00;;
33403;SDS011;19751;40.274;18.268;2023-08-17T10:14:06;8.63;;;7.70;;
33403;SDS011;19751;40.274;18.268;2023-08-17T10:16:44;12.48;;;8.85;;
33403;SDS011;19751;40.274;18.268;2023-08-17T10:22:09;8.98;;;8.10;;
33403;SDS011;19751;40.274;18.268;2023-08-17T10:24:54;10.23;;;8.52;;
33403;SDS011;19751;40.274;18.268;2023-08-17T10:27:22;9.52;;;8.63;;
33403;SDS011;19751;40.274;18.268;2023-08-17T10:29:48;9.80;;;8.80;;
33403;SDS011;19751;40.274;18.268;2023-08-17T10:32:16;9.55;;;8.20;;
33403;SDS011;19751;40.274;18.268;2023-08-17T10:34:42;9.57;;;8.63;;
33403;SDS011;19751;40.274;18.268;2023-08-17T10:37:09;9.15;;;7.90;;
33403;SDS011;19751;40.274;18.268;2023-08-17T10:39:36;8.73;;;7.90;;
33403;SDS011;19751;40.274;18.268;2023-08-17T10:42:11;10.02;;;9.00;;
33403;SDS011;19751;40.274;18.268;2023-08-17T10:44:38;9.57;;;8.50;;
33403;SDS011;19751;40.274;18.268;2023-08-17T10:47:18;15.02;;;9.30;;
33403;SDS011;19751;40.274;18.268;2023-08-17T10:49:47;10.63;;;9.60;;
33403;SDS011;19751;40.274;18.268;2023-08-17T10:52:25;11.60;;;9.98;;
33403;SDS011;19751;40.274;18.268;2023-08-17T10:54:52;9.65;;;8.80;;
33403;SDS011;19751;40.274;18.268;2023-08-17T11:00:07;13.18;;;10.35;;
33403;SDS011;19751;40.274;18.268;2023-08-17T11:02:55;9.93;;;8.95;;
33403;SDS011;19751;40.274;18.268;2023-08-17T11:05:35;10.73;;;9.63;;
33403;SDS011;19751;40.274;18.268;2023-08-17T11:08:11;12.73;;;9.43;;
33403;SDS011;19751;40.274;18.268;2023-08-17T11:13:30;11.77;;;9.57;;
33403;SDS011;19751;40.274;18.268;2023-08-17T11:15:58;10.73;;;9.43;;
33403;SDS011;19751;40.274;18.268;2023-08-17T11:18:24;10.35;;;9.38;;
33403;SDS011;19751;40.274;18.268;2023-08-17T11:20:50;10.23;;;9.13;;
33403;SDS011;19751;40.274;18.268;2023-08-17T11:23:16;12.32;;;9.70;;
33403;SDS011;19751;40.274;18.268;2023-08-17T11:25:43;10.52;;;9.52;;
33403;SDS011;19751;40.274;18.268;2023-08-17T11:28:08;10.55;;;9.48;;
33403;SDS011;19751;40.274;18.268;2023-08-17T11:30:35;11.15;;;9.45;;
33403;SDS011;19751;40.274;18.268;2023-08-17T11:33:04;10.77;;;9.68;;
33403;SDS011;19751;40.274;18.268;2023-08-17T11:35:30;10.88;;;9.57;;
33403;SDS011;19751;40.274;18.268;2023-08-17T11:37:56;12.55;;;9.10;;
33403;SDS011;19751;40.274;18.268;2023-08-17T11:40:21;17.45;;;10.60;;
33403;SDS011;19751;40.274;18.268;2023-08-17T11:42:47;11.30;;;9.70;;
33403;SDS011;19751;40.274;18.268;2023-08-17T11:45:13;11.05;;;9.90;;
33403;SDS011;19751;40.274;18.268;2023-08-17T11:47:39;10.85;;;9.75;;
33403;SDS011;19751;40.274;18.268;2023-08-17T11:50:09;13.77;;;9.80;;
33403;SDS011;19751;40.274;18.268;2023-08-17T11:52:36;11.70;;;9.93;;
33403;SDS011;19751;40.274;18.268;2023-08-17T11:55:03;13.80;;;9.20;;
33403;SDS011;19751;40.274;18.268;2023-08-17T11:57:34;14.35;;;9.27;;
33403;SDS011;19751;40.274;18.268;2023-08-17T12:00:01;12.40;;;9.35;;
33403;SDS011;19751;40.274;18.268;2023-08-17T12:02:28;12.00;;;10.02;;
33403;SDS011;19751;40.274;18.268;2023-08-17T12:04:55;13.60;;;9.93;;
33403;SDS011;19751;40.274;18.268;2023-08-17T12:07:22;12.35;;;8.85;;
33403;SDS011;19751;40.274;18.268;2023-08-17T12:09:49;11.82;;;9.52;;
33403;SDS011;19751;40.274;18.268;2023-08-17T12:12:18;13.73;;;9.43;;
33403;SDS011;19751;40.274;18.268;2023-08-17T12:14:46;13.38;;;9.65;;
33403;SDS011;19751;40.274;18.268;2023-08-17T12:17:18;14.50;;;8.60;;
33403;SDS011;19751;40.274;18.268;2023-08-17T12:19:48;9.73;;;8.63;;
33403;SDS011;19751;40.274;18.268;2023-08-17T12:22:14;14.00;;;9.38;;
33403;SDS011;19751;40.274;18.268;2023-08-17T12:24:41;15.57;;;10.40;;
33403;SDS011;19751;40.274;18.268;2023-08-17T12:27:07;14.27;;;8.70;;
33403;SDS011;19751;40.274;18.268;2023-08-17T12:29:32;11.23;;;9.05;;
33403;SDS011;19751;40.274;18.268;2023-08-17T12:31:58;12.25;;;8.93;;
33403;SDS011;19751;40.274;18.268;2023-08-17T12:34:24;11.80;;;9.70;;
33403;SDS011;19751;40.274;18.268;2023-08-17T12:36:50;14.68;;;9.40;;
33403;SDS011;19751;40.274;18.268;2023-08-17T12:39:15;10.18;;;8.63;;
33403;SDS011;19751;40.274;18.268;2023-08-17T12:41:41;13.98;;;8.40;;
33403;SDS011;19751;40.274;18.268;2023-08-17T12:44:08;16.52;;;8.48;;
33403;SDS011;19751;40.274;18.268;2023-08-17T12:46:37;10.25;;;9.15;;
33403;SDS011;19751;40.274;18.268;2023-08-17T12:49:02;8.98;;;8.07;;
33403;SDS011;19751;40.274;18.268;2023-08-17T12:51:28;9.88;;;8.88;;
33403;SDS011;19751;40.274;18.268;2023-08-17T12:53:54;11.02;;;8.88;;
33403;SDS011;19751;40.274;18.268;2023-08-17T12:56:19;10.02;;;8.18;;
33403;SDS011;19751;40.274;18.268;2023-08-17T12:58:45;13.20;;;8.32;;
33403;SDS011;19751;40.274;18.268;2023-08-17T13:01:10;11.68;;;8.73;;
33403;SDS011;19751;40.274;18.268;2023-08-17T13:03:36;10.88;;;8.88;;
33403;SDS011;19751;40.274;18.268;2023-08-17T13:06:02;12.25;;;9.02;;
33403;SDS011;19751;40.274;18.268;2023-08-17T13:08:28;12.52;;;8.38;;
33403;SDS011;19751;40.274;18.268;2023-08-17T13:10:53;8.63;;;7.82;;
33403;SDS011;19751;40.274;18.268;2023-08-17T13:13:19;10.70;;;8.48;;
33403;SDS011;19751;40.274;18.268;2023-08-17T13:15:45;12.05;;;8.80;;
33403;SDS011;19751;40.274;18.268;2023-08-17T13:18:11;12.50;;;8.13;;
33403;SDS011;19751;40.274;18.268;2023-08-17T13:20:36;9.63;;;8.55;;
33403;SDS011;19751;40.274;18.268;2023-08-17T13:23:03;11.27;;;8.57;;
33403;SDS011;19751;40.274;18.268;2023-08-17T13:25:29;8.40;;;7.50;;
33403;SDS011;19751;40.274;18.268;2023-08-17T13:27:55;14.23;;;8.73;;
33403;SDS011;19751;40.274;18.268;2023-08-17T13:30:20;10.75;;;8.43;;
33403;SDS011;19751;40.274;18.268;2023-08-17T13:32:46;10.07;;;8.23;;
33403;SDS011;19751;40.274;18.268;2023-08-17T13:35:11;10.63;;;8.30;;
33403;SDS011;19751;40.274;18.268;2023-08-17T13:37:37;11.13;;;8.07;;
33403;SDS011;19751;40.274;18.268;2023-08-17T13:40:03;10.07;;;9.07;;
33403;SDS011;19751;40.274;18.268;2023-08-17T13:42:29;13.35;;;8.77;;
33403;SDS011;19751;40.274;18.268;2023-08-17T13:44:54;10.75;;;7.93;;
33403;SDS011;19751;40.274;18.268;2023-08-17T13:47:20;10.57;;;7.90;;
33403;SDS011;19751;40.274;18.268;2023-08-17T13:49:45;10.60;;;8.15;;
33403;SDS011;19751;40.274;18.268;2023-08-17T13:52:11;11.98;;;9.15;;
33403;SDS011;19751;40.274;18.268;2023-08-17T13:54:37;11.88;;;8.52;;
33403;SDS011;19751;40.274;18.268;2023-08-17T13:57:02;9.75;;;8.20;;
33403;SDS011;19751;40.274;18.268;2023-08-17T13:59:28;10.32;;;8.00;;
33403;SDS011;19751;40.274;18.268;2023-08-17T14:01:55;9.88;;;8.90;;
33403;SDS011;19751;40.274;18.268;2023-08-17T14:04:21;13.57;;;9.25;;
33403;SDS011;19751;40.274;18.268;2023-08-17T14:06:47;12.05;;;9.32;;
33403;SDS011;19751;40.274;18.268;2023-08-17T14:09:13;11.52;;;9.05;;
33403;SDS011;19751;40.274;18.268;2023-08-17T14:11:39;9.13;;;8.35;;
33403;SDS011;19751;40.274;18.268;2023-08-17T14:14:04;10.20;;;8.70;;
33403;SDS011;19751;40.274;18.268;2023-08-17T14:16:30;11.45;;;8.98;;
33403;SDS011;19751;40.274;18.268;2023-08-17T14:18:56;10.38;;;9.43;;
33403;SDS011;19751;40.274;18.268;2023-08-17T14:21:21;10.48;;;9.40;;
33403;SDS011;19751;40.274;18.268;2023-08-17T14:23:47;12.55;;;9.85;;